createdAt,value
2022-11-19T00:04:04.586Z,5.5
2022-11-19T00:09:06.588Z,5.4
2022-11-19T00:14:09.193Z,5.1
2022-11-19T00:19:11.297Z,5.1
2022-11-19T00:24:13.476Z,5.2
2022-11-19T00:29:20.478Z,5.2
2022-11-19T00:34:22.931Z,5.2
2022-11-19T00:39:24.949Z,5.2
2022-11-19T00:44:27.061Z,5.2
2022-11-19T00:49:35.177Z,5.3
2022-11-19T00:54:37.144Z,5.4
2022-11-19T00:59:39.863Z,5.5
2022-11-19T01:04:41.855Z,5.5
2022-11-19T01:09:43.769Z,5.6
2022-11-19T01:14:45.889Z,5.6
2022-11-19T01:19:48.330Z,5.6
2022-11-19T01:24:50.248Z,5.5
2022-11-19T01:29:52.787Z,5.4
2022-11-19T01:34:54.808Z,5.3
2022-11-19T01:39:56.838Z,5.4
2022-11-19T01:44:58.997Z,5.4
2022-11-19T01:50:01.372Z,5.3
2022-11-19T01:55:03.370Z,5.2
2022-11-19T02:00:05.331Z,5.2
2022-11-19T02:05:07.433Z,5.3
2022-11-19T02:10:09.502Z,5.4
2022-11-19T02:15:11.904Z,5.4
2022-11-19T02:20:14.602Z,5.4
2022-11-19T02:25:16.651Z,5.5
2022-11-19T02:30:19.300Z,5.4
2022-11-19T02:35:21.351Z,5.3
2022-11-19T02:40:23.280Z,5.3
2022-11-19T02:45:25.746Z,4.7
2022-11-19T02:50:27.844Z,4.7
2022-11-19T02:55:29.804Z,4.5
2022-11-19T03:00:32.075Z,4.4
2022-11-19T03:05:34.163Z,4.3
2022-11-19T03:10:36.280Z,4.3
2022-11-19T03:15:38.888Z,4
2022-11-19T03:20:41.513Z,3.9
2022-11-19T03:25:43.477Z,3.9
2022-11-19T03:30:45.966Z,3.6
2022-11-19T03:35:48.075Z,3.6
2022-11-19T03:40:50.201Z,3.6
2022-11-19T03:45:52.275Z,3.5
2022-11-19T03:50:54.287Z,3.5
2022-11-19T03:55:56.320Z,3.5
2022-11-19T04:01:03.149Z,3.7
2022-11-19T04:06:05.135Z,3.7
2022-11-19T04:16:16.693Z,3.6
2022-11-19T04:21:18.761Z,3.6
2022-11-19T04:26:20.798Z,3.6
2022-11-19T04:31:22.870Z,3.7
2022-11-19T04:36:24.930Z,3.8
2022-11-19T04:41:27.038Z,3.8
2022-11-19T04:46:29.574Z,3.4
2022-11-19T04:51:31.743Z,3.4
2022-11-19T04:56:34.058Z,3.4
2022-11-19T05:01:36.691Z,3.3
2022-11-19T05:06:38.976Z,3.3
2022-11-19T05:11:40.969Z,3.2
2022-11-19T05:16:43.413Z,2.7
2022-11-19T05:21:45.615Z,2.7
2022-11-19T05:26:47.772Z,2.6
2022-11-19T05:31:49.865Z,2.6
2022-11-19T05:36:51.923Z,2.6
2022-11-19T05:41:54.030Z,2.7
2022-11-19T05:46:56.539Z,2.9
2022-11-19T05:51:58.684Z,2.9
2022-11-19T05:57:00.699Z,2.9
2022-11-19T06:02:03.096Z,3
2022-11-19T06:07:05.274Z,3
2022-11-19T06:12:07.514Z,3
2022-11-19T06:17:10.870Z,3.2
2022-11-19T06:22:13.832Z,3.1
2022-11-19T06:27:15.823Z,3.1
2022-11-19T06:32:18.253Z,3.5
2022-11-19T06:37:20.260Z,3.4
2022-11-19T06:42:22.288Z,3.6
2022-11-19T06:47:24.351Z,4
2022-11-19T06:52:26.334Z,4.7
2022-11-19T06:57:28.387Z,4.6
2022-11-19T07:02:30.574Z,5.7
2022-11-19T07:07:32.644Z,8.2
2022-11-19T07:12:34.666Z,11
2022-11-19T07:17:37.048Z,12.9
2022-11-19T07:22:39.058Z,12.8
2022-11-19T07:27:40.973Z,12.7
2022-11-19T07:32:42.824Z,14.6
2022-11-19T07:37:44.767Z,16.7
2022-11-19T07:42:46.853Z,17.3
2022-11-19T07:47:48.745Z,15.8
2022-11-19T07:52:50.688Z,16.2
2022-11-19T07:57:52.939Z,14.8
2022-11-19T08:02:54.924Z,14.3
2022-11-19T08:07:56.874Z,14.2
2022-11-19T08:12:58.984Z,13.7
2022-11-19T08:18:00.897Z,13.7
2022-11-19T08:23:02.948Z,12.7
2022-11-19T08:28:04.771Z,14.5
2022-11-19T08:33:06.666Z,14.3
2022-11-19T08:38:08.660Z,16.2
2022-11-19T08:43:10.614Z,20.3
2022-11-19T08:48:13.173Z,21.6
2022-11-19T08:53:15.384Z,21.5
2022-11-19T08:58:17.602Z,22.6
2022-11-19T09:03:19.779Z,25.2
2022-11-19T09:08:21.664Z,23.5
2022-11-19T09:13:23.671Z,19
2022-11-19T09:18:25.874Z,17.9
2022-11-19T09:23:28.052Z,21
2022-11-19T09:28:30.270Z,22.1
2022-11-19T09:33:32.735Z,25.3
2022-11-19T09:38:34.702Z,25.2
2022-11-19T09:43:36.638Z,25.8
2022-11-19T09:48:39.074Z,25.9
2022-11-19T09:53:41.009Z,25.9
2022-11-19T09:58:42.953Z,22.9
2022-11-19T10:03:45.382Z,18
2022-11-19T10:08:47.452Z,17.8
2022-11-19T10:13:49.363Z,21.4
2022-11-19T10:18:51.511Z,24.2
2022-11-19T10:23:53.935Z,22.4
2022-11-19T10:28:55.912Z,26.9
2022-11-19T10:33:58.342Z,23.7
2022-11-19T10:39:00.412Z,23.6
2022-11-19T10:44:02.673Z,22.1
2022-11-19T10:49:06.891Z,23.2
2022-11-19T10:54:08.800Z,23.2
2022-11-19T10:59:11.092Z,26
2022-11-19T11:04:13.721Z,26.3
2022-11-19T11:09:15.711Z,26.2
2022-11-19T11:14:17.960Z,25.5
2022-11-19T11:19:21.344Z,23.9
2022-11-19T11:24:24.047Z,23.9
2022-11-19T11:29:26.239Z,22.3
2022-11-19T11:34:28.710Z,22.1
2022-11-19T11:39:30.741Z,22
2022-11-19T11:44:32.755Z,20.7
2022-11-19T11:49:34.761Z,20.4
2022-11-19T11:54:36.798Z,21.1
2022-11-19T11:59:38.780Z,22
2022-11-19T12:04:40.686Z,21.7
2022-11-19T12:09:42.679Z,23.1
2022-11-19T12:14:44.691Z,22.9
2022-11-19T12:19:46.795Z,22.6
2022-11-19T12:24:49.507Z,21.7
2022-11-19T12:29:51.532Z,22.9
2022-11-19T12:34:53.704Z,22.2
2022-11-19T12:39:55.841Z,21.8
2022-11-19T12:44:58.040Z,20.7
2022-11-19T12:49:59.962Z,20.1
2022-11-19T12:55:01.970Z,19.4
2022-11-19T13:00:03.944Z,18.3
2022-11-19T13:05:05.922Z,17.5
2022-11-19T13:10:08.581Z,16.3
2022-11-19T13:15:10.716Z,15.3
2022-11-19T13:20:12.777Z,13.6
2022-11-19T13:25:15.187Z,12.5
2022-11-19T13:30:17.211Z,11.3
2022-11-19T13:35:19.630Z,9.7
2022-11-19T13:40:21.894Z,9.7
2022-11-19T13:50:25.176Z,8.2
2022-11-19T13:55:27.516Z,8.1
2022-11-19T14:00:29.591Z,7.9
2022-11-19T14:05:32.368Z,7.3
2022-11-19T14:10:34.405Z,7.2
2022-11-19T14:15:36.558Z,7
2022-11-19T14:20:38.530Z,6.8
2022-11-19T14:25:40.747Z,6.6
2022-11-19T14:30:42.839Z,6.6
2022-11-19T14:35:44.917Z,6.2
2022-11-19T14:40:46.974Z,5.9
2022-11-19T14:45:49.069Z,5.6
2022-11-19T14:50:50.991Z,5.4
2022-11-19T14:55:53.064Z,5.2
2022-11-19T15:00:55.117Z,5.1
2022-11-19T15:05:57.161Z,4.9
2022-11-19T15:10:59.265Z,4.8
2022-11-19T15:16:01.307Z,4.7
2022-11-19T15:21:03.745Z,4.7
2022-11-19T15:26:05.969Z,4.6
2022-11-19T15:31:08.293Z,4.6
2022-11-19T15:36:11.300Z,4.7
2022-11-19T15:41:13.375Z,4.6
2022-11-19T15:46:15.451Z,4.6
2022-11-19T15:51:17.506Z,4.6
2022-11-19T15:56:19.500Z,4.5
2022-11-19T16:01:22.416Z,4.4
2022-11-19T16:06:25.162Z,4.4
2022-11-19T16:11:27.538Z,4.3
2022-11-19T16:16:29.670Z,4.4
2022-11-19T16:21:31.888Z,4.4
2022-11-19T16:26:34.717Z,4.4
2022-11-19T16:31:36.677Z,4.3
2022-11-19T16:36:39.193Z,4.5
2022-11-19T16:41:41.233Z,4.5
2022-11-19T16:46:43.274Z,4.4
2022-11-19T16:51:45.793Z,4.5
2022-11-19T16:56:48.044Z,4.4
2022-11-19T17:01:50.171Z,4.5
2022-11-19T17:06:52.987Z,4.5
2022-11-19T17:11:54.982Z,4.5
2022-11-19T17:16:57.295Z,4.5
2022-11-19T17:21:59.814Z,4.4
2022-11-19T17:27:02.363Z,4.4
2022-11-19T17:32:04.364Z,4.3
2022-11-19T17:37:06.492Z,4.2
2022-11-19T17:42:08.575Z,4.2
2022-11-19T17:47:24.686Z,4.1
2022-11-19T17:52:21.565Z,4
2022-11-19T17:57:23.693Z,3.9
2022-11-19T18:02:25.701Z,3.9
2022-11-19T18:07:28.129Z,3.9
2022-11-19T18:12:30.204Z,3.9
2022-11-19T18:17:32.285Z,3.7
2022-11-19T18:22:34.313Z,3.6
2022-11-19T18:27:36.830Z,3.5
2022-11-19T18:32:39.181Z,3.5
2022-11-19T18:37:41.154Z,3.5
2022-11-19T18:42:43.149Z,3.6
2022-11-19T18:47:45.546Z,3.6
2022-11-19T18:52:47.627Z,3.7
2022-11-19T18:57:50.168Z,3.7
2022-11-19T19:02:52.229Z,3.7
2022-11-19T19:12:54.996Z,3.6
2022-11-19T19:17:57.097Z,3.5
2022-11-19T19:22:59.369Z,3.5
2022-11-19T19:28:01.601Z,3.7
2022-11-19T19:33:03.653Z,4.2
2022-11-19T19:38:06.075Z,3.7
2022-11-19T19:43:08.332Z,3.6
2022-11-19T19:48:11.087Z,3.6
2022-11-19T19:53:13.265Z,3.4
2022-11-19T19:58:15.412Z,3.5
2022-11-19T20:03:17.701Z,3.4
2022-11-19T20:08:19.796Z,3.2
2022-11-19T20:13:21.797Z,3.2
2022-11-19T20:18:23.901Z,3.1
2022-11-19T20:23:26.461Z,3
2022-11-19T20:28:29.976Z,3.1
2022-11-19T20:33:31.974Z,3.1
2022-11-19T20:38:34.131Z,3.1
2022-11-19T20:43:51.530Z,3
2022-11-19T20:48:44.637Z,3
2022-11-19T20:53:46.699Z,2.9
2022-11-19T20:58:48.824Z,2.9
2022-11-19T21:03:50.902Z,2.8
2022-11-19T21:08:52.849Z,2.7
2022-11-19T21:13:54.946Z,2.7
2022-11-19T21:18:57.093Z,2.7
2022-11-19T21:23:59.194Z,2.6
2022-11-19T21:29:01.464Z,2.6
2022-11-19T21:34:03.542Z,2.6
2022-11-19T21:39:05.704Z,2.5
2022-11-19T21:44:10.730Z,2.6
2022-11-19T21:49:17.989Z,2.5
2022-11-19T21:54:21.770Z,2.5
2022-11-19T21:59:24.674Z,2.3
2022-11-19T22:04:26.680Z,2.3
2022-11-19T22:09:28.763Z,2.3
2022-11-19T22:14:30.783Z,2.3
2022-11-19T22:19:32.842Z,2.3
2022-11-19T22:24:34.934Z,2.3
2022-11-19T22:29:37.235Z,2.3
2022-11-19T22:34:39.317Z,2.3
2022-11-19T22:39:41.554Z,2.2
2022-11-19T22:44:43.630Z,2.2
2022-11-19T22:49:45.771Z,2.2
2022-11-19T22:54:47.990Z,2.2
2022-11-19T22:59:52.807Z,2.1
2022-11-19T23:04:54.804Z,2.1
2022-11-19T23:09:56.922Z,2.1
2022-11-19T23:14:59.151Z,2.2
2022-11-19T23:20:06.348Z,2.1
2022-11-19T23:25:09.311Z,2.1
2022-11-19T23:30:11.438Z,2.1
2022-11-19T23:35:13.470Z,2.1
2022-11-19T23:40:16.578Z,2.2
2022-11-19T23:45:19.277Z,2.2
2022-11-19T23:50:21.227Z,2.1
2022-11-19T23:55:23.319Z,2.1
